createdAt,value
2019-01-26T00:03:39.408Z,-1.70
2019-01-26T00:08:25.207Z,-1.70
2019-01-26T00:13:11.196Z,-1.80
2019-01-26T00:17:57.137Z,-1.80
2019-01-26T00:22:42.871Z,-1.90
2019-01-26T00:27:28.849Z,-1.90
2019-01-26T00:32:14.842Z,-1.90
2019-01-26T00:37:00.717Z,-1.90
2019-01-26T00:41:47.773Z,-1.90
2019-01-26T00:46:33.582Z,-1.80
2019-01-26T00:51:19.464Z,-1.70
2019-01-26T00:56:05.461Z,-1.80
2019-01-26T01:00:51.305Z,-1.80
2019-01-26T01:05:37.180Z,-1.80
2019-01-26T01:10:23.103Z,-1.80
2019-01-26T01:15:10.205Z,-1.70
2019-01-26T01:19:56.033Z,-1.60
2019-01-26T01:24:41.786Z,-1.50
2019-01-26T01:29:27.709Z,-1.60
2019-01-26T01:34:13.485Z,-1.50
2019-01-26T01:38:59.373Z,-1.50
2019-01-26T01:43:45.272Z,-1.50
2019-01-26T01:48:31.395Z,-1.40
2019-01-26T01:53:17.288Z,-1.30
2019-01-26T01:58:03.264Z,-1.10
2019-01-26T02:02:49.163Z,-1.10
2019-01-26T02:07:34.992Z,-1.00
2019-01-26T02:12:20.798Z,-0.90
2019-01-26T02:17:06.713Z,-1.00
2019-01-26T02:21:52.551Z,-1.00
2019-01-26T02:26:38.587Z,-0.90
2019-01-26T02:31:24.498Z,-1.00
2019-01-26T02:36:10.741Z,-1.00
2019-01-26T02:40:56.457Z,-0.90
2019-01-26T02:45:42.286Z,-0.80
2019-01-26T02:50:28.012Z,-0.70
2019-01-26T02:55:14.046Z,-0.70
2019-01-26T02:59:59.851Z,-0.50
2019-01-26T03:04:45.901Z,-0.60
2019-01-26T03:09:31.663Z,-0.60
2019-01-26T03:14:17.453Z,-0.70
2019-01-26T03:19:03.557Z,-0.70
2019-01-26T03:23:49.351Z,-0.70
2019-01-26T03:28:35.173Z,-0.70
2019-01-26T03:33:20.937Z,-0.70
2019-01-26T03:38:06.733Z,-0.80
2019-01-26T03:42:52.627Z,-0.80
2019-01-26T03:47:38.410Z,-0.80
2019-01-26T03:52:24.180Z,-0.80
2019-01-26T03:57:10.033Z,-0.80
2019-01-26T04:01:55.995Z,-0.80
2019-01-26T04:06:41.844Z,-1.00
2019-01-26T04:11:27.600Z,-1.00
2019-01-26T04:16:13.359Z,-1.00
2019-01-26T04:20:59.143Z,-1.00
2019-01-26T04:25:44.849Z,-1.10
2019-01-26T04:30:30.673Z,-1.00
2019-01-26T04:35:16.987Z,-1.00
2019-01-26T04:40:02.878Z,-1.00
2019-01-26T04:44:48.684Z,-1.00
2019-01-26T04:49:34.412Z,-1.00
2019-01-26T04:54:20.175Z,-1.00
2019-01-26T04:59:05.969Z,-1.00
2019-01-26T05:03:51.737Z,-1.10
2019-01-26T05:08:37.532Z,-1.20
2019-01-26T05:13:23.383Z,-1.40
2019-01-26T05:18:09.156Z,-1.40
2019-01-26T05:22:55.044Z,-1.50
2019-01-26T05:27:40.766Z,-1.50
2019-01-26T05:32:26.697Z,-1.50
2019-01-26T05:37:12.505Z,-1.50
2019-01-26T05:41:58.324Z,-1.50
2019-01-26T05:46:44.243Z,-1.60
2019-01-26T05:51:30.120Z,-1.70
2019-01-26T05:56:15.986Z,-1.80
2019-01-26T06:01:01.715Z,-1.90
2019-01-26T06:05:47.422Z,-1.90
2019-01-26T06:10:33.173Z,-2.00
2019-01-26T06:15:19.062Z,-2.00
2019-01-26T06:20:05.817Z,-2.10
2019-01-26T06:24:51.702Z,-2.10
2019-01-26T06:29:37.425Z,-2.10
2019-01-26T06:34:23.188Z,-2.10
2019-01-26T06:39:09.262Z,-2.10
2019-01-26T06:43:54.977Z,-2.10
2019-01-26T06:48:40.738Z,-2.20
2019-01-26T06:53:26.613Z,-2.10
2019-01-26T06:58:12.413Z,-2.10
2019-01-26T07:02:58.118Z,-2.10
2019-01-26T07:07:44.045Z,-2.00
2019-01-26T07:12:29.847Z,-2.10
2019-01-26T07:17:15.713Z,-2.00
2019-01-26T07:22:01.672Z,-2.00
2019-01-26T07:26:47.432Z,-2.00
2019-01-26T07:31:33.323Z,-1.90
2019-01-26T07:36:19.162Z,-2.00
2019-01-26T07:41:05.151Z,-1.80
2019-01-26T07:45:50.824Z,-1.70
2019-01-26T07:50:36.823Z,-1.70
2019-01-26T07:55:22.739Z,-1.60
2019-01-26T08:00:12.954Z,-1.50
2019-01-26T08:04:58.737Z,-1.50
2019-01-26T08:09:44.493Z,-1.40
2019-01-26T08:14:30.293Z,-1.30
2019-01-26T08:19:16.081Z,-1.40
2019-01-26T08:24:01.926Z,-1.30
2019-01-26T08:28:47.697Z,-1.30
2019-01-26T08:33:33.515Z,-1.30
2019-01-26T08:38:19.302Z,-0.90
2019-01-26T08:43:05.308Z,-1.10
2019-01-26T08:47:51.529Z,-1.10
2019-01-26T08:52:37.404Z,-1.00
2019-01-26T08:57:23.243Z,-0.90
2019-01-26T09:02:29.804Z,-0.80
2019-01-26T09:07:15.920Z,-0.70
2019-01-26T09:12:01.859Z,-0.60
2019-01-26T09:16:47.559Z,-0.50
2019-01-26T09:21:33.552Z,-0.50
2019-01-26T09:26:19.399Z,-0.40
2019-01-26T09:31:05.536Z,-0.20
2019-01-26T09:35:51.365Z,-0.10
2019-01-26T09:40:37.166Z,0.00
2019-01-26T09:45:23.113Z,0.20
2019-01-26T09:50:10.596Z,0.50
2019-01-26T09:54:56.494Z,0.50
2019-01-26T09:59:42.499Z,0.50
2019-01-26T10:04:28.351Z,0.40
2019-01-26T10:09:14.277Z,0.80
2019-01-26T10:14:00.343Z,0.90
2019-01-26T10:18:46.243Z,1.30
2019-01-26T10:23:32.164Z,1.80
2019-01-26T10:28:18.114Z,2.10
2019-01-26T10:33:04.182Z,1.80
2019-01-26T10:37:50.156Z,2.00
2019-01-26T10:42:37.019Z,1.90
2019-01-26T10:47:23.083Z,1.70
2019-01-26T10:52:09.291Z,1.90
2019-01-26T10:56:55.320Z,2.10
2019-01-26T11:01:41.249Z,1.90
2019-01-26T11:06:27.590Z,1.70
2019-01-26T11:11:13.481Z,1.90
2019-01-26T11:15:59.593Z,2.20
2019-01-26T11:20:45.765Z,2.00
2019-01-26T11:25:31.757Z,2.00
2019-01-26T11:30:18.521Z,1.80
2019-01-26T11:35:04.999Z,1.90
2019-01-26T11:39:58.307Z,1.90
2019-01-26T11:45:02.951Z,1.90
2019-01-26T11:49:56.723Z,1.90
2019-01-26T11:55:02.820Z,2.40
2019-01-26T12:00:07.586Z,2.10
2019-01-26T12:05:02.927Z,2.50
2019-01-26T12:09:48.874Z,2.90
2019-01-26T12:14:34.725Z,3.10
2019-01-26T12:19:22.491Z,3.00
2019-01-26T12:24:08.612Z,3.20
2019-01-26T12:28:54.438Z,3.20
2019-01-26T12:33:40.284Z,2.60
2019-01-26T12:38:26.204Z,2.20
2019-01-26T12:43:12.126Z,2.40
2019-01-26T12:47:58.070Z,2.20
2019-01-26T12:52:44.133Z,2.20
2019-01-26T12:57:30.071Z,2.50
2019-01-26T13:02:16.036Z,2.70
2019-01-26T13:07:02.636Z,3.20
2019-01-26T13:11:48.404Z,2.90
2019-01-26T13:16:34.222Z,2.50
2019-01-26T13:21:19.951Z,2.50
2019-01-26T13:26:05.857Z,2.60
2019-01-26T13:30:51.724Z,2.60
2019-01-26T13:35:38.621Z,2.70
2019-01-26T13:40:24.655Z,2.90
2019-01-26T13:45:12.852Z,3.10
2019-01-26T13:49:58.655Z,3.00
2019-01-26T13:54:44.640Z,3.00
2019-01-26T13:59:30.546Z,3.20
2019-01-26T14:04:16.534Z,3.20
2019-01-26T14:09:02.369Z,2.90
2019-01-26T14:13:48.244Z,2.90
2019-01-26T14:18:34.185Z,2.80
2019-01-26T14:23:20.126Z,2.80
2019-01-26T14:28:06.239Z,2.80
2019-01-26T14:32:52.602Z,2.70
2019-01-26T14:37:38.699Z,2.90
2019-01-26T14:42:24.607Z,3.00
2019-01-26T14:47:10.834Z,3.10
2019-01-26T14:51:56.795Z,3.10
2019-01-26T14:56:42.951Z,3.20
2019-01-26T15:01:28.861Z,2.90
2019-01-26T15:06:15.013Z,2.80
2019-01-26T15:11:00.861Z,2.70
2019-01-26T15:15:46.815Z,2.60
2019-01-26T15:20:38.476Z,2.60
2019-01-26T15:25:24.881Z,2.50
2019-01-26T15:30:26.063Z,2.50
2019-01-26T15:35:12.094Z,2.60
2019-01-26T15:39:57.996Z,2.50
2019-01-26T15:44:43.906Z,2.30
2019-01-26T15:49:29.984Z,2.30
2019-01-26T15:54:15.753Z,2.30
2019-01-26T15:59:01.634Z,2.20
2019-01-26T16:03:47.479Z,2.20
2019-01-26T16:08:33.851Z,2.20
2019-01-26T16:13:19.951Z,2.00
2019-01-26T16:18:08.268Z,1.80
2019-01-26T16:22:54.197Z,1.60
2019-01-26T16:27:40.311Z,1.50
2019-01-26T16:32:26.441Z,1.40
2019-01-26T16:37:12.551Z,1.40
2019-01-26T16:41:58.581Z,1.30
2019-01-26T16:46:44.586Z,1.30
2019-01-26T16:51:30.531Z,1.30
2019-01-26T16:56:16.536Z,1.30
2019-01-26T17:01:03.093Z,1.30
2019-01-26T17:05:49.254Z,1.30
2019-01-26T17:10:35.584Z,1.30
2019-01-26T17:15:21.495Z,1.20
2019-01-26T17:20:14.146Z,1.10
2019-01-26T17:25:00.302Z,1.10
2019-01-26T17:29:46.385Z,1.20
2019-01-26T17:34:32.337Z,1.20
2019-01-26T17:39:18.585Z,1.20
2019-01-26T17:44:04.581Z,1.10
2019-01-26T17:48:50.839Z,1.00
2019-01-26T17:53:37.413Z,1.00
2019-01-26T17:58:23.501Z,1.00
2019-01-26T18:03:09.429Z,1.00
2019-01-26T18:07:55.475Z,1.00
2019-01-26T18:12:41.400Z,1.00
2019-01-26T18:17:27.416Z,1.00
2019-01-26T18:22:13.601Z,1.00
2019-01-26T18:26:59.509Z,0.90
2019-01-26T18:31:45.593Z,1.00
2019-01-26T18:36:31.552Z,1.00
2019-01-26T18:41:17.877Z,1.10
2019-01-26T18:46:04.162Z,1.30
2019-01-26T18:50:56.167Z,1.60
2019-01-26T18:55:39.580Z,1.70
2019-01-26T19:00:30.629Z,1.70
2019-01-26T19:05:19.050Z,1.90
2019-01-26T19:10:05.670Z,1.80
2019-01-26T19:14:51.661Z,1.70
2019-01-26T19:19:37.848Z,1.50
2019-01-26T19:24:23.911Z,1.20
2019-01-26T19:29:09.928Z,0.80
2019-01-26T19:33:56.116Z,0.60
2019-01-26T19:38:41.952Z,0.50
2019-01-26T19:43:28.008Z,0.70
2019-01-26T19:48:14.272Z,0.70
2019-01-26T19:53:00.549Z,0.60
2019-01-26T19:57:46.695Z,0.90
2019-01-26T20:02:33.106Z,0.80
2019-01-26T20:07:19.259Z,0.50
2019-01-26T20:12:06.165Z,0.70
2019-01-26T20:16:52.351Z,1.10
2019-01-26T20:21:38.775Z,1.30
2019-01-26T20:26:25.463Z,1.30
2019-01-26T20:31:11.657Z,1.10
2019-01-26T20:35:58.033Z,1.10
2019-01-26T20:40:44.338Z,1.30
2019-01-26T20:45:30.656Z,1.30
2019-01-26T20:50:16.981Z,1.20
2019-01-26T20:55:03.901Z,1.00
2019-01-26T20:59:50.265Z,0.80
2019-01-26T21:04:36.640Z,0.50
2019-01-26T21:09:22.900Z,0.20
2019-01-26T21:14:11.917Z,-0.10
2019-01-26T21:18:58.165Z,-0.30
2019-01-26T21:23:44.432Z,1.40
2019-01-26T21:28:30.552Z,3.10
2019-01-26T21:33:16.752Z,2.90
2019-01-26T21:38:02.906Z,1.70
2019-01-26T21:42:49.177Z,1.10
2019-01-26T21:47:35.242Z,0.60
2019-01-26T21:52:21.276Z,0.20
2019-01-26T21:57:07.310Z,0.00
2019-01-26T22:01:53.240Z,-0.10
2019-01-26T22:06:40.641Z,-0.30
2019-01-26T22:11:26.531Z,-0.30
2019-01-26T22:16:12.437Z,-0.20
2019-01-26T22:20:58.286Z,-0.40
2019-01-26T22:25:44.243Z,-0.40
2019-01-26T22:30:35.216Z,-0.30
2019-01-26T22:35:21.358Z,-0.30
2019-01-26T22:40:10.164Z,-0.50
2019-01-26T22:44:56.106Z,-0.60
2019-01-26T22:49:41.892Z,-0.50
2019-01-26T22:54:27.929Z,-0.20
2019-01-26T22:59:14.105Z,-0.20
2019-01-26T23:04:49.489Z,-0.30
2019-01-26T23:09:53.925Z,-0.20
2019-01-26T23:15:08.511Z,-0.10
2019-01-26T23:20:29.257Z,-0.20
2019-01-26T23:26:10.242Z,-0.40
2019-01-26T23:31:21.694Z,-0.50
2019-01-26T23:36:07.758Z,-0.70
2019-01-26T23:40:53.899Z,-0.70
2019-01-26T23:45:39.921Z,-0.80
2019-01-26T23:50:25.726Z,-0.50
2019-01-26T23:55:11.908Z,-0.50
2019-01-26T23:59:57.679Z,-0.60
